sensor_id;sensor_type;location;lat;lon;timestamp;temperature;humidity
18191;DHT22;47004;51.366;12.348;2024-02-21T00:00:52;8.00;99.90
18191;DHT22;47004;51.366;12.348;2024-02-21T00:02:54;7.90;99.90
18191;DHT22;47004;51.366;12.348;2024-02-21T00:04:56;7.90;99.90
18191;DHT22;47004;51.366;12.348;2024-02-21T00:06:58;8.00;99.90
18191;DHT22;47004;51.366;12.348;2024-02-21T00:09:00;7.90;99.90
18191;DHT22;47004;51.366;12.348;2024-02-21T00:11:02;7.90;99.90
18191;DHT22;47004;51.366;12.348;2024-02-21T00:13:04;7.90;99.90
18191;DHT22;47004;51.366;12.348;2024-02-21T00:15:08;7.90;99.90
18191;DHT22;47004;51.366;12.348;2024-02-21T00:17:11;7.80;99.90
18191;DHT22;47004;51.366;12.348;2024-02-21T00:19:13;7.80;99.90
18191;DHT22;47004;51.366;12.348;2024-02-21T00:21:15;7.80;99.90
18191;DHT22;47004;51.366;12.348;2024-02-21T00:23:18;7.80;99.90
18191;DHT22;47004;51.366;12.348;2024-02-21T00:25:20;7.80;99.90
18191;DHT22;47004;51.366;12.348;2024-02-21T00:27:22;7.80;99.90
18191;DHT22;47004;51.366;12.348;2024-02-21T00:29:23;7.80;99.90
18191;DHT22;47004;51.366;12.348;2024-02-21T00:31:29;7.70;99.90
18191;DHT22;47004;51.366;12.348;2024-02-21T00:33:31;7.70;99.90
18191;DHT22;47004;51.366;12.348;2024-02-21T00:35:33;7.80;99.90
18191;DHT22;47004;51.366;12.348;2024-02-21T00:37:35;7.70;99.90
18191;DHT22;47004;51.366;12.348;2024-02-21T00:39:37;7.70;99.90
18191;DHT22;47004;51.366;12.348;2024-02-21T00:41:39;7.70;99.90
18191;DHT22;47004;51.366;12.348;2024-02-21T00:43:41;7.80;99.90
18191;DHT22;47004;51.366;12.348;2024-02-21T00:45:43;7.70;99.90
18191;DHT22;47004;51.366;12.348;2024-02-21T00:47:45;7.80;99.90
18191;DHT22;47004;51.366;12.348;2024-02-21T00:49:48;7.80;99.90
18191;DHT22;47004;51.366;12.348;2024-02-21T00:51:50;7.70;99.90
18191;DHT22;47004;51.366;12.348;2024-02-21T00:53:55;7.70;99.90
18191;DHT22;47004;51.366;12.348;2024-02-21T00:55:57;7.70;99.90
18191;DHT22;47004;51.366;12.348;2024-02-21T00:57:58;7.70;99.90
18191;DHT22;47004;51.366;12.348;2024-02-21T01:00:01;7.70;99.90
18191;DHT22;47004;51.366;12.348;2024-02-21T01:02:02;7.70;99.90
18191;DHT22;47004;51.366;12.348;2024-02-21T01:04:04;7.70;99.90
18191;DHT22;47004;51.366;12.348;2024-02-21T01:06:07;7.70;99.90
18191;DHT22;47004;51.366;12.348;2024-02-21T01:08:12;7.70;99.90
18191;DHT22;47004;51.366;12.348;2024-02-21T01:10:18;7.70;99.90
18191;DHT22;47004;51.366;12.348;2024-02-21T01:12:20;7.70;99.90
18191;DHT22;47004;51.366;12.348;2024-02-21T01:14:21;7.70;99.90
18191;DHT22;47004;51.366;12.348;2024-02-21T01:16:25;7.70;99.90
18191;DHT22;47004;51.366;12.348;2024-02-21T01:18:27;7.60;99.90
18191;DHT22;47004;51.366;12.348;2024-02-21T01:20:28;7.60;99.90
18191;DHT22;47004;51.366;12.348;2024-02-21T01:22:31;7.70;99.90
18191;DHT22;47004;51.366;12.348;2024-02-21T01:24:33;7.70;99.90
18191;DHT22;47004;51.366;12.348;2024-02-21T01:26:37;7.90;99.90
18191;DHT22;47004;51.366;12.348;2024-02-21T01:28:39;7.70;99.90
18191;DHT22;47004;51.366;12.348;2024-02-21T01:30:41;7.70;99.90
18191;DHT22;47004;51.366;12.348;2024-02-21T01:32:43;7.70;99.90
18191;DHT22;47004;51.366;12.348;2024-02-21T01:34:48;7.60;99.90
18191;DHT22;47004;51.366;12.348;2024-02-21T01:36:50;7.70;99.90
18191;DHT22;47004;51.366;12.348;2024-02-21T01:38:53;7.70;99.90
18191;DHT22;47004;51.366;12.348;2024-02-21T01:40:56;7.70;99.90
18191;DHT22;47004;51.366;12.348;2024-02-21T01:42:58;7.70;99.90
18191;DHT22;47004;51.366;12.348;2024-02-21T01:45:00;7.70;99.90
18191;DHT22;47004;51.366;12.348;2024-02-21T01:47:01;7.70;99.90
18191;DHT22;47004;51.366;12.348;2024-02-21T01:49:04;7.70;99.90
18191;DHT22;47004;51.366;12.348;2024-02-21T01:51:08;7.70;99.90
18191;DHT22;47004;51.366;12.348;2024-02-21T01:53:11;7.70;99.90
18191;DHT22;47004;51.366;12.348;2024-02-21T01:55:19;7.70;99.90
18191;DHT22;47004;51.366;12.348;2024-02-21T01:57:22;7.70;99.90
18191;DHT22;47004;51.366;12.348;2024-02-21T01:59:24;7.70;99.90
18191;DHT22;47004;51.366;12.348;2024-02-21T02:01:25;7.70;99.90
18191;DHT22;47004;51.366;12.348;2024-02-21T02:03:27;7.80;99.90
18191;DHT22;47004;51.366;12.348;2024-02-21T02:05:29;7.70;99.90
18191;DHT22;47004;51.366;12.348;2024-02-21T02:07:30;7.70;99.90
18191;DHT22;47004;51.366;12.348;2024-02-21T02:09:32;7.80;99.90
18191;DHT22;47004;51.366;12.348;2024-02-21T02:11:36;7.80;99.90
18191;DHT22;47004;51.366;12.348;2024-02-21T02:13:38;7.80;99.90
18191;DHT22;47004;51.366;12.348;2024-02-21T02:15:41;7.80;99.90
18191;DHT22;47004;51.366;12.348;2024-02-21T02:17:42;7.80;99.90
18191;DHT22;47004;51.366;12.348;2024-02-21T02:19:44;7.80;99.90
18191;DHT22;47004;51.366;12.348;2024-02-21T02:21:49;7.80;99.90
18191;DHT22;47004;51.366;12.348;2024-02-21T02:23:55;7.80;99.90
18191;DHT22;47004;51.366;12.348;2024-02-21T02:25:57;7.70;99.90
18191;DHT22;47004;51.366;12.348;2024-02-21T02:28:05;7.70;99.90
18191;DHT22;47004;51.366;12.348;2024-02-21T02:30:08;7.70;99.90
18191;DHT22;47004;51.366;12.348;2024-02-21T02:32:11;7.70;99.90
18191;DHT22;47004;51.366;12.348;2024-02-21T02:34:13;7.70;99.90
18191;DHT22;47004;51.366;12.348;2024-02-21T02:36:14;7.80;99.90
18191;DHT22;47004;51.366;12.348;2024-02-21T02:38:18;7.80;99.90
18191;DHT22;47004;51.366;12.348;2024-02-21T02:40:23;7.80;99.90
18191;DHT22;47004;51.366;12.348;2024-02-21T02:42:25;7.80;99.90
18191;DHT22;47004;51.366;12.348;2024-02-21T02:44:27;7.80;99.90
18191;DHT22;47004;51.366;12.348;2024-02-21T02:46:29;7.80;99.90
18191;DHT22;47004;51.366;12.348;2024-02-21T02:48:31;7.70;99.90
18191;DHT22;47004;51.366;12.348;2024-02-21T02:50:32;7.80;99.90
18191;DHT22;47004;51.366;12.348;2024-02-21T02:52:34;7.70;99.90
18191;DHT22;47004;51.366;12.348;2024-02-21T02:54:35;7.80;99.90
18191;DHT22;47004;51.366;12.348;2024-02-21T02:56:38;7.80;99.90
18191;DHT22;47004;51.366;12.348;2024-02-21T02:58:40;7.80;99.90
18191;DHT22;47004;51.366;12.348;2024-02-21T03:00:42;7.80;99.90
18191;DHT22;47004;51.366;12.348;2024-02-21T03:02:45;7.80;99.90
18191;DHT22;47004;51.366;12.348;2024-02-21T03:04:48;7.80;99.90
18191;DHT22;47004;51.366;12.348;2024-02-21T03:06:49;7.80;99.90
18191;DHT22;47004;51.366;12.348;2024-02-21T03:08:52;7.80;99.90
18191;DHT22;47004;51.366;12.348;2024-02-21T03:10:55;7.70;99.90
18191;DHT22;47004;51.366;12.348;2024-02-21T03:12:58;7.80;99.90
18191;DHT22;47004;51.366;12.348;2024-02-21T03:15:00;7.70;99.90
18191;DHT22;47004;51.366;12.348;2024-02-21T03:17:03;7.70;99.90
18191;DHT22;47004;51.366;12.348;2024-02-21T03:19:04;7.70;99.90
18191;DHT22;47004;51.366;12.348;2024-02-21T03:21:05;8.00;99.90
18191;DHT22;47004;51.366;12.348;2024-02-21T03:23:09;7.70;99.90
18191;DHT22;47004;51.366;12.348;2024-02-21T03:25:10;7.70;99.90
18191;DHT22;47004;51.366;12.348;2024-02-21T03:27:13;7.80;99.90
18191;DHT22;47004;51.366;12.348;2024-02-21T03:29:18;7.70;99.90
18191;DHT22;47004;51.366;12.348;2024-02-21T03:31:19;7.80;99.90
18191;DHT22;47004;51.366;12.348;2024-02-21T03:33:21;7.70;99.90
18191;DHT22;47004;51.366;12.348;2024-02-21T03:35:24;7.70;99.90
18191;DHT22;47004;51.366;12.348;2024-02-21T03:37:27;7.70;99.90
18191;DHT22;47004;51.366;12.348;2024-02-21T03:39:31;7.70;99.90
18191;DHT22;47004;51.366;12.348;2024-02-21T03:41:33;7.80;99.90
18191;DHT22;47004;51.366;12.348;2024-02-21T03:43:35;7.70;99.90
18191;DHT22;47004;51.366;12.348;2024-02-21T03:45:41;7.70;99.90
18191;DHT22;47004;51.366;12.348;2024-02-21T03:47:43;7.70;99.90
18191;DHT22;47004;51.366;12.348;2024-02-21T03:49:47;7.80;99.90
18191;DHT22;47004;51.366;12.348;2024-02-21T03:51:49;7.80;99.90
18191;DHT22;47004;51.366;12.348;2024-02-21T03:53:50;7.80;99.90
18191;DHT22;47004;51.366;12.348;2024-02-21T03:55:51;7.80;99.90
18191;DHT22;47004;51.366;12.348;2024-02-21T03:57:54;7.80;99.90
18191;DHT22;47004;51.366;12.348;2024-02-21T03:59:56;7.80;99.90
18191;DHT22;47004;51.366;12.348;2024-02-21T04:01:59;7.80;99.90
18191;DHT22;47004;51.366;12.348;2024-02-21T04:04:01;7.80;99.90
18191;DHT22;47004;51.366;12.348;2024-02-21T04:06:04;7.80;99.90
18191;DHT22;47004;51.366;12.348;2024-02-21T04:08:05;7.80;99.90
18191;DHT22;47004;51.366;12.348;2024-02-21T04:10:08;7.80;99.90
18191;DHT22;47004;51.366;12.348;2024-02-21T04:12:13;7.80;99.90
18191;DHT22;47004;51.366;12.348;2024-02-21T04:14:14;7.80;99.90
18191;DHT22;47004;51.366;12.348;2024-02-21T04:16:17;7.80;99.90
18191;DHT22;47004;51.366;12.348;2024-02-21T04:18:22;7.70;99.90
18191;DHT22;47004;51.366;12.348;2024-02-21T04:20:24;7.80;99.90
18191;DHT22;47004;51.366;12.348;2024-02-21T04:22:26;7.80;99.90
18191;DHT22;47004;51.366;12.348;2024-02-21T04:24:28;7.70;99.90
18191;DHT22;47004;51.366;12.348;2024-02-21T04:26:28;7.80;99.90
18191;DHT22;47004;51.366;12.348;2024-02-21T04:28:30;7.80;99.90
18191;DHT22;47004;51.366;12.348;2024-02-21T04:30:32;7.80;99.90
18191;DHT22;47004;51.366;12.348;2024-02-21T04:32:34;7.80;99.90
18191;DHT22;47004;51.366;12.348;2024-02-21T04:34:37;7.70;99.90
18191;DHT22;47004;51.366;12.348;2024-02-21T04:36:40;7.70;99.90
18191;DHT22;47004;51.366;12.348;2024-02-21T04:38:41;7.70;99.90
18191;DHT22;47004;51.366;12.348;2024-02-21T04:40:43;7.80;99.90
18191;DHT22;47004;51.366;12.348;2024-02-21T04:42:45;7.80;99.90
18191;DHT22;47004;51.366;12.348;2024-02-21T04:44:47;7.70;99.90
18191;DHT22;47004;51.366;12.348;2024-02-21T04:46:49;7.70;99.90
18191;DHT22;47004;51.366;12.348;2024-02-21T04:48:51;7.70;99.90
18191;DHT22;47004;51.366;12.348;2024-02-21T04:50:56;7.70;99.90
18191;DHT22;47004;51.366;12.348;2024-02-21T04:52:57;7.70;99.90
18191;DHT22;47004;51.366;12.348;2024-02-21T04:54:59;7.70;99.90
18191;DHT22;47004;51.366;12.348;2024-02-21T04:57:01;7.70;99.90
18191;DHT22;47004;51.366;12.348;2024-02-21T04:59:03;7.70;99.90
18191;DHT22;47004;51.366;12.348;2024-02-21T05:01:05;7.80;99.90
18191;DHT22;47004;51.366;12.348;2024-02-21T05:03:08;7.70;99.90
18191;DHT22;47004;51.366;12.348;2024-02-21T05:05:10;7.70;99.90
18191;DHT22;47004;51.366;12.348;2024-02-21T05:07:13;7.70;99.90
18191;DHT22;47004;51.366;12.348;2024-02-21T05:09:15;7.70;99.90
18191;DHT22;47004;51.366;12.348;2024-02-21T05:11:17;7.70;99.90
18191;DHT22;47004;51.366;12.348;2024-02-21T05:13:19;7.70;99.90
18191;DHT22;47004;51.366;12.348;2024-02-21T05:15:24;7.70;99.90
18191;DHT22;47004;51.366;12.348;2024-02-21T05:17:25;7.70;99.90
18191;DHT22;47004;51.366;12.348;2024-02-21T05:19:30;7.70;99.90
18191;DHT22;47004;51.366;12.348;2024-02-21T05:21:32;7.70;99.90
18191;DHT22;47004;51.366;12.348;2024-02-21T05:23:35;7.70;99.90
18191;DHT22;47004;51.366;12.348;2024-02-21T05:25:36;7.70;99.90
18191;DHT22;47004;51.366;12.348;2024-02-21T05:27:41;7.70;99.90
18191;DHT22;47004;51.366;12.348;2024-02-21T05:29:43;7.70;99.90
18191;DHT22;47004;51.366;12.348;2024-02-21T05:31:56;7.70;99.90
18191;DHT22;47004;51.366;12.348;2024-02-21T05:33:58;7.70;99.90
18191;DHT22;47004;51.366;12.348;2024-02-21T05:35:59;7.70;99.90
18191;DHT22;47004;51.366;12.348;2024-02-21T05:38:01;7.70;99.90
18191;DHT22;47004;51.366;12.348;2024-02-21T05:40:08;7.70;99.90
18191;DHT22;47004;51.366;12.348;2024-02-21T05:42:12;7.70;99.90
18191;DHT22;47004;51.366;12.348;2024-02-21T05:44:13;7.70;99.90
18191;DHT22;47004;51.366;12.348;2024-02-21T05:46:19;7.70;99.90
18191;DHT22;47004;51.366;12.348;2024-02-21T05:48:22;7.70;99.90
18191;DHT22;47004;51.366;12.348;2024-02-21T05:50:24;7.70;99.90
18191;DHT22;47004;51.366;12.348;2024-02-21T05:52:29;7.70;99.90
18191;DHT22;47004;51.366;12.348;2024-02-21T05:54:31;7.70;99.90
18191;DHT22;47004;51.366;12.348;2024-02-21T05:56:34;7.70;99.90
18191;DHT22;47004;51.366;12.348;2024-02-21T05:58:35;7.70;99.90
18191;DHT22;47004;51.366;12.348;2024-02-21T06:00:37;7.80;99.90
18191;DHT22;47004;51.366;12.348;2024-02-21T06:02:42;7.80;99.90
18191;DHT22;47004;51.366;12.348;2024-02-21T06:04:44;7.80;99.90
18191;DHT22;47004;51.366;12.348;2024-02-21T06:06:47;7.80;99.90
18191;DHT22;47004;51.366;12.348;2024-02-21T06:08:48;7.70;99.90
18191;DHT22;47004;51.366;12.348;2024-02-21T06:10:50;7.70;99.90
18191;DHT22;47004;51.366;12.348;2024-02-21T06:13:00;7.70;99.90
18191;DHT22;47004;51.366;12.348;2024-02-21T06:15:02;7.60;99.90
18191;DHT22;47004;51.366;12.348;2024-02-21T06:17:04;7.60;99.90
18191;DHT22;47004;51.366;12.348;2024-02-21T06:19:06;7.60;99.90
18191;DHT22;47004;51.366;12.348;2024-02-21T06:21:08;7.60;99.90
18191;DHT22;47004;51.366;12.348;2024-02-21T06:23:11;7.60;99.90
18191;DHT22;47004;51.366;12.348;2024-02-21T06:25:13;7.50;99.90
18191;DHT22;47004;51.366;12.348;2024-02-21T06:27:15;7.50;99.90
18191;DHT22;47004;51.366;12.348;2024-02-21T06:29:19;7.50;99.90
18191;DHT22;47004;51.366;12.348;2024-02-21T06:31:21;7.50;99.90
18191;DHT22;47004;51.366;12.348;2024-02-21T06:33:22;7.50;99.90
18191;DHT22;47004;51.366;12.348;2024-02-21T06:35:25;7.50;99.90
18191;DHT22;47004;51.366;12.348;2024-02-21T06:37:27;7.50;99.90
18191;DHT22;47004;51.366;12.348;2024-02-21T06:39:29;7.50;99.90
18191;DHT22;47004;51.366;12.348;2024-02-21T06:41:31;7.50;99.90
18191;DHT22;47004;51.366;12.348;2024-02-21T06:43:34;7.50;99.90
18191;DHT22;47004;51.366;12.348;2024-02-21T06:45:37;7.50;99.90
18191;DHT22;47004;51.366;12.348;2024-02-21T06:47:39;7.60;99.90
18191;DHT22;47004;51.366;12.348;2024-02-21T06:49:48;7.50;99.90
18191;DHT22;47004;51.366;12.348;2024-02-21T06:51:50;7.60;99.90
18191;DHT22;47004;51.366;12.348;2024-02-21T06:53:55;7.50;99.90
18191;DHT22;47004;51.366;12.348;2024-02-21T06:55:57;7.50;99.90
18191;DHT22;47004;51.366;12.348;2024-02-21T06:57:58;7.60;99.90
18191;DHT22;47004;51.366;12.348;2024-02-21T07:00:00;7.60;99.90
18191;DHT22;47004;51.366;12.348;2024-02-21T07:02:04;7.60;99.90
18191;DHT22;47004;51.366;12.348;2024-02-21T07:04:06;7.60;99.90
18191;DHT22;47004;51.366;12.348;2024-02-21T07:06:08;7.70;99.90
18191;DHT22;47004;51.366;12.348;2024-02-21T07:08:10;7.70;99.90
18191;DHT22;47004;51.366;12.348;2024-02-21T07:10:11;7.70;99.90
18191;DHT22;47004;51.366;12.348;2024-02-21T07:12:13;7.70;99.90
18191;DHT22;47004;51.366;12.348;2024-02-21T07:14:15;7.80;99.90
18191;DHT22;47004;51.366;12.348;2024-02-21T07:16:20;7.80;99.90
18191;DHT22;47004;51.366;12.348;2024-02-21T07:18:23;7.80;99.90
18191;DHT22;47004;51.366;12.348;2024-02-21T07:20:25;7.90;99.90
18191;DHT22;47004;51.366;12.348;2024-02-21T07:22:27;7.90;99.90
18191;DHT22;47004;51.366;12.348;2024-02-21T07:24:29;7.90;99.90
18191;DHT22;47004;51.366;12.348;2024-02-21T07:26:32;7.90;99.90
18191;DHT22;47004;51.366;12.348;2024-02-21T07:28:34;7.90;99.90
18191;DHT22;47004;51.366;12.348;2024-02-21T07:30:36;8.00;99.90
18191;DHT22;47004;51.366;12.348;2024-02-21T07:32:38;8.00;99.90
18191;DHT22;47004;51.366;12.348;2024-02-21T07:34:41;8.00;99.90
18191;DHT22;47004;51.366;12.348;2024-02-21T07:36:44;8.00;99.90
18191;DHT22;47004;51.366;12.348;2024-02-21T07:38:46;8.00;99.90
18191;DHT22;47004;51.366;12.348;2024-02-21T07:40:48;8.00;99.90
18191;DHT22;47004;51.366;12.348;2024-02-21T07:42:50;8.00;99.90
18191;DHT22;47004;51.366;12.348;2024-02-21T07:44:51;8.00;99.90
18191;DHT22;47004;51.366;12.348;2024-02-21T07:46:53;8.10;99.90
18191;DHT22;47004;51.366;12.348;2024-02-21T07:48:54;8.00;99.90
18191;DHT22;47004;51.366;12.348;2024-02-21T07:50:58;8.10;99.90
18191;DHT22;47004;51.366;12.348;2024-02-21T07:53:00;8.10;99.90
18191;DHT22;47004;51.366;12.348;2024-02-21T07:55:01;8.10;99.90
18191;DHT22;47004;51.366;12.348;2024-02-21T07:57:04;8.10;99.90
18191;DHT22;47004;51.366;12.348;2024-02-21T07:59:06;8.10;99.90
18191;DHT22;47004;51.366;12.348;2024-02-21T08:01:08;8.20;99.90
18191;DHT22;47004;51.366;12.348;2024-02-21T08:03:10;8.20;99.90
18191;DHT22;47004;51.366;12.348;2024-02-21T08:05:12;8.20;99.90
18191;DHT22;47004;51.366;12.348;2024-02-21T08:07:17;8.20;99.90
18191;DHT22;47004;51.366;12.348;2024-02-21T08:09:21;8.30;99.90
18191;DHT22;47004;51.366;12.348;2024-02-21T08:11:23;8.30;99.90
18191;DHT22;47004;51.366;12.348;2024-02-21T08:13:25;8.30;99.90
18191;DHT22;47004;51.366;12.348;2024-02-21T08:15:29;8.40;99.90
18191;DHT22;47004;51.366;12.348;2024-02-21T08:17:31;8.30;99.90
18191;DHT22;47004;51.366;12.348;2024-02-21T08:19:33;8.30;99.90
18191;DHT22;47004;51.366;12.348;2024-02-21T08:21:35;8.40;99.90
18191;DHT22;47004;51.366;12.348;2024-02-21T08:23:38;8.40;99.90
18191;DHT22;47004;51.366;12.348;2024-02-21T08:25:40;8.50;99.90
18191;DHT22;47004;51.366;12.348;2024-02-21T08:27:42;8.60;99.90
18191;DHT22;47004;51.366;12.348;2024-02-21T08:29:43;8.70;99.90
18191;DHT22;47004;51.366;12.348;2024-02-21T08:31:45;8.70;99.90
18191;DHT22;47004;51.366;12.348;2024-02-21T08:33:46;8.70;99.90
18191;DHT22;47004;51.366;12.348;2024-02-21T08:35:49;8.80;99.90
18191;DHT22;47004;51.366;12.348;2024-02-21T08:37:50;8.70;99.90
18191;DHT22;47004;51.366;12.348;2024-02-21T08:39:54;8.80;99.90
18191;DHT22;47004;51.366;12.348;2024-02-21T08:41:59;8.80;99.90
18191;DHT22;47004;51.366;12.348;2024-02-21T08:44:01;8.70;99.90
18191;DHT22;47004;51.366;12.348;2024-02-21T08:46:03;8.70;99.90
18191;DHT22;47004;51.366;12.348;2024-02-21T08:48:06;8.70;99.90
18191;DHT22;47004;51.366;12.348;2024-02-21T08:50:09;8.70;99.90
18191;DHT22;47004;51.366;12.348;2024-02-21T08:52:12;8.80;99.90
18191;DHT22;47004;51.366;12.348;2024-02-21T08:54:17;8.70;99.90
18191;DHT22;47004;51.366;12.348;2024-02-21T08:56:21;8.70;99.90
18191;DHT22;47004;51.366;12.348;2024-02-21T08:58:21;8.70;99.90
18191;DHT22;47004;51.366;12.348;2024-02-21T09:00:26;8.70;99.90
18191;DHT22;47004;51.366;12.348;2024-02-21T09:02:28;8.70;99.90
18191;DHT22;47004;51.366;12.348;2024-02-21T09:04:30;8.70;99.90
18191;DHT22;47004;51.366;12.348;2024-02-21T09:06:35;8.70;99.90
18191;DHT22;47004;51.366;12.348;2024-02-21T09:08:39;8.70;99.90
18191;DHT22;47004;51.366;12.348;2024-02-21T09:10:41;8.70;99.90
18191;DHT22;47004;51.366;12.348;2024-02-21T09:12:44;8.70;99.90
18191;DHT22;47004;51.366;12.348;2024-02-21T09:14:45;8.70;99.90
18191;DHT22;47004;51.366;12.348;2024-02-21T09:16:49;8.70;99.90
18191;DHT22;47004;51.366;12.348;2024-02-21T09:18:51;8.70;99.90
18191;DHT22;47004;51.366;12.348;2024-02-21T09:20:53;8.70;99.90
18191;DHT22;47004;51.366;12.348;2024-02-21T09:22:55;8.70;99.90
18191;DHT22;47004;51.366;12.348;2024-02-21T09:24:56;8.70;99.90
18191;DHT22;47004;51.366;12.348;2024-02-21T09:26:59;8.70;99.90
18191;DHT22;47004;51.366;12.348;2024-02-21T09:29:11;8.80;99.90
18191;DHT22;47004;51.366;12.348;2024-02-21T09:31:13;8.80;99.90
18191;DHT22;47004;51.366;12.348;2024-02-21T09:33:15;8.80;99.90
18191;DHT22;47004;51.366;12.348;2024-02-21T09:35:20;8.90;99.90
18191;DHT22;47004;51.366;12.348;2024-02-21T09:37:23;8.90;99.90
18191;DHT22;47004;51.366;12.348;2024-02-21T09:39:25;8.90;99.90
18191;DHT22;47004;51.366;12.348;2024-02-21T09:41:28;8.90;99.90
18191;DHT22;47004;51.366;12.348;2024-02-21T09:43:30;8.90;99.90
18191;DHT22;47004;51.366;12.348;2024-02-21T09:45:34;8.90;99.90
18191;DHT22;47004;51.366;12.348;2024-02-21T09:47:44;9.00;99.90
18191;DHT22;47004;51.366;12.348;2024-02-21T09:49:49;9.00;99.90
18191;DHT22;47004;51.366;12.348;2024-02-21T09:51:51;9.00;99.90
18191;DHT22;47004;51.366;12.348;2024-02-21T09:53:57;9.10;99.90
18191;DHT22;47004;51.366;12.348;2024-02-21T09:56:00;9.10;99.90
18191;DHT22;47004;51.366;12.348;2024-02-21T09:58:05;9.10;99.90
18191;DHT22;47004;51.366;12.348;2024-02-21T10:00:08;9.10;99.90
18191;DHT22;47004;51.366;12.348;2024-02-21T10:02:13;9.20;99.90
18191;DHT22;47004;51.366;12.348;2024-02-21T10:04:16;9.30;99.90
18191;DHT22;47004;51.366;12.348;2024-02-21T10:06:19;9.30;99.90
18191;DHT22;47004;51.366;12.348;2024-02-21T10:08:21;9.30;99.90
18191;DHT22;47004;51.366;12.348;2024-02-21T10:10:23;9.40;99.90
18191;DHT22;47004;51.366;12.348;2024-02-21T10:12:25;9.40;99.90
18191;DHT22;47004;51.366;12.348;2024-02-21T10:14:26;9.40;99.90
18191;DHT22;47004;51.366;12.348;2024-02-21T10:16:28;9.40;99.90
18191;DHT22;47004;51.366;12.348;2024-02-21T10:18:32;9.40;99.90
18191;DHT22;47004;51.366;12.348;2024-02-21T10:20:34;9.40;99.90
18191;DHT22;47004;51.366;12.348;2024-02-21T10:22:37;9.50;99.90
18191;DHT22;47004;51.366;12.348;2024-02-21T10:24:43;9.50;99.90
18191;DHT22;47004;51.366;12.348;2024-02-21T10:26:45;9.50;99.90
18191;DHT22;47004;51.366;12.348;2024-02-21T10:28:48;9.60;99.90
18191;DHT22;47004;51.366;12.348;2024-02-21T10:30:52;9.60;99.90
18191;DHT22;47004;51.366;12.348;2024-02-21T10:32:54;9.60;99.90
18191;DHT22;47004;51.366;12.348;2024-02-21T10:35:03;9.70;99.90
18191;DHT22;47004;51.366;12.348;2024-02-21T10:37:06;9.70;99.90
18191;DHT22;47004;51.366;12.348;2024-02-21T10:39:08;9.70;99.90
18191;DHT22;47004;51.366;12.348;2024-02-21T10:41:14;9.80;99.90
18191;DHT22;47004;51.366;12.348;2024-02-21T10:43:17;9.80;99.90
18191;DHT22;47004;51.366;12.348;2024-02-21T10:45:20;9.80;99.90
18191;DHT22;47004;51.366;12.348;2024-02-21T10:47:23;9.80;99.90
18191;DHT22;47004;51.366;12.348;2024-02-21T10:49:26;9.80;99.90
18191;DHT22;47004;51.366;12.348;2024-02-21T10:51:33;9.80;99.90
18191;DHT22;47004;51.366;12.348;2024-02-21T10:53:41;9.90;99.90
18191;DHT22;47004;51.366;12.348;2024-02-21T10:55:56;9.90;99.90
18191;DHT22;47004;51.366;12.348;2024-02-21T10:58:00;9.90;99.90
18191;DHT22;47004;51.366;12.348;2024-02-21T11:00:03;9.80;99.90
18191;DHT22;47004;51.366;12.348;2024-02-21T11:02:08;9.80;99.90
18191;DHT22;47004;51.366;12.348;2024-02-21T11:04:11;9.90;99.90
18191;DHT22;47004;51.366;12.348;2024-02-21T11:06:14;9.90;99.90
18191;DHT22;47004;51.366;12.348;2024-02-21T11:08:18;9.90;99.90
18191;DHT22;47004;51.366;12.348;2024-02-21T11:10:23;10.00;99.90
18191;DHT22;47004;51.366;12.348;2024-02-21T11:12:33;10.00;99.90
18191;DHT22;47004;51.366;12.348;2024-02-21T11:14:38;10.00;99.90
18191;DHT22;47004;51.366;12.348;2024-02-21T11:16:42;10.10;99.90
18191;DHT22;47004;51.366;12.348;2024-02-21T11:18:43;10.10;99.90
18191;DHT22;47004;51.366;12.348;2024-02-21T11:20:50;10.20;99.90
18191;DHT22;47004;51.366;12.348;2024-02-21T11:22:51;10.20;99.90
18191;DHT22;47004;51.366;12.348;2024-02-21T11:25:06;10.30;99.90
18191;DHT22;47004;51.366;12.348;2024-02-21T11:27:12;10.30;99.90
18191;DHT22;47004;51.366;12.348;2024-02-21T11:29:23;10.40;99.90
18191;DHT22;47004;51.366;12.348;2024-02-21T11:31:26;10.40;99.90
18191;DHT22;47004;51.366;12.348;2024-02-21T11:33:28;10.40;99.90
18191;DHT22;47004;51.366;12.348;2024-02-21T11:35:33;10.40;99.90
18191;DHT22;47004;51.366;12.348;2024-02-21T11:37:36;10.30;99.90
18191;DHT22;47004;51.366;12.348;2024-02-21T11:39:38;10.30;99.90
18191;DHT22;47004;51.366;12.348;2024-02-21T11:41:43;10.30;99.90
18191;DHT22;47004;51.366;12.348;2024-02-21T11:43:45;10.30;99.90
18191;DHT22;47004;51.366;12.348;2024-02-21T11:45:47;10.30;99.90
18191;DHT22;47004;51.366;12.348;2024-02-21T11:47:52;10.30;99.90
18191;DHT22;47004;51.366;12.348;2024-02-21T11:49:54;10.30;99.90
18191;DHT22;47004;51.366;12.348;2024-02-21T11:51:59;10.30;99.90
18191;DHT22;47004;51.366;12.348;2024-02-21T11:54:06;10.30;99.90
18191;DHT22;47004;51.366;12.348;2024-02-21T11:56:08;10.30;99.90
18191;DHT22;47004;51.366;12.348;2024-02-21T11:58:12;10.40;99.90
18191;DHT22;47004;51.366;12.348;2024-02-21T12:00:15;10.40;99.90
18191;DHT22;47004;51.366;12.348;2024-02-21T12:02:17;10.40;99.90
18191;DHT22;47004;51.366;12.348;2024-02-21T12:04:19;10.40;99.90
18191;DHT22;47004;51.366;12.348;2024-02-21T12:06:21;10.50;99.90
18191;DHT22;47004;51.366;12.348;2024-02-21T12:08:23;10.50;99.90
18191;DHT22;47004;51.366;12.348;2024-02-21T12:10:26;10.50;99.90
18191;DHT22;47004;51.366;12.348;2024-02-21T12:12:28;10.60;99.90
18191;DHT22;47004;51.366;12.348;2024-02-21T12:14:33;10.60;99.90
18191;DHT22;47004;51.366;12.348;2024-02-21T12:16:35;10.70;99.90
18191;DHT22;47004;51.366;12.348;2024-02-21T12:18:39;10.90;99.90
18191;DHT22;47004;51.366;12.348;2024-02-21T12:20:41;11.20;99.90
18191;DHT22;47004;51.366;12.348;2024-02-21T12:22:44;11.30;99.90
18191;DHT22;47004;51.366;12.348;2024-02-21T12:24:46;11.30;99.90
18191;DHT22;47004;51.366;12.348;2024-02-21T12:26:48;11.30;99.90
18191;DHT22;47004;51.366;12.348;2024-02-21T12:28:50;11.20;99.90
18191;DHT22;47004;51.366;12.348;2024-02-21T12:30:53;11.20;99.90
18191;DHT22;47004;51.366;12.348;2024-02-21T12:32:55;11.20;99.90
18191;DHT22;47004;51.366;12.348;2024-02-21T12:34:58;11.10;99.90
18191;DHT22;47004;51.366;12.348;2024-02-21T12:37:01;11.10;99.90
18191;DHT22;47004;51.366;12.348;2024-02-21T12:39:04;11.10;99.90
18191;DHT22;47004;51.366;12.348;2024-02-21T12:41:05;11.10;99.90
18191;DHT22;47004;51.366;12.348;2024-02-21T12:43:08;11.10;99.90
18191;DHT22;47004;51.366;12.348;2024-02-21T12:45:10;11.20;99.90
18191;DHT22;47004;51.366;12.348;2024-02-21T12:47:14;11.50;99.90
18191;DHT22;47004;51.366;12.348;2024-02-21T12:49:15;11.80;99.90
18191;DHT22;47004;51.366;12.348;2024-02-21T12:51:17;12.00;99.90
18191;DHT22;47004;51.366;12.348;2024-02-21T12:53:21;12.10;99.90
18191;DHT22;47004;51.366;12.348;2024-02-21T12:55:23;12.20;99.90